sensor_id;sensor_type;location;lat;lon;timestamp;pressure;altitude;pressure_sealevel;temperature;humidity
41106;BME280;74159;52.530;13.188;2023-11-19T00:00:09;101186.03;;;3.29;75.86
41106;BME280;74159;52.530;13.188;2023-11-19T00:02:40;101171.09;;;3.32;75.50
41106;BME280;74159;52.530;13.188;2023-11-19T00:05:05;101154.25;;;3.35;74.63
41106;BME280;74159;52.530;13.188;2023-11-19T00:07:34;101144.16;;;3.36;75.34
41106;BME280;74159;52.530;13.188;2023-11-19T00:09:59;101135.94;;;3.36;75.29
41106;BME280;74159;52.530;13.188;2023-11-19T00:12:34;101132.81;;;3.39;75.25
41106;BME280;74159;52.530;13.188;2023-11-19T00:15:00;101144.97;;;3.43;74.39
41106;BME280;74159;52.530;13.188;2023-11-19T00:17:25;101127.28;;;3.45;74.33
41106;BME280;74159;52.530;13.188;2023-11-19T00:19:50;101128.13;;;3.46;74.46
41106;BME280;74159;52.530;13.188;2023-11-19T00:22:16;101118.63;;;3.48;74.38
41106;BME280;74159;52.530;13.188;2023-11-19T00:24:41;101113.16;;;3.48;74.03
41106;BME280;74159;52.530;13.188;2023-11-19T00:27:07;101111.03;;;3.50;74.57
41106;BME280;74159;52.530;13.188;2023-11-19T00:29:32;101107.06;;;3.53;74.56
41106;BME280;74159;52.530;13.188;2023-11-19T00:31:58;101105.56;;;3.57;74.39
41106;BME280;74159;52.530;13.188;2023-11-19T00:34:23;101103.00;;;3.62;73.77
41106;BME280;74159;52.530;13.188;2023-11-19T00:36:48;101091.81;;;3.63;73.30
41106;BME280;74159;52.530;13.188;2023-11-19T00:39:14;101067.44;;;3.62;73.68
41106;BME280;74159;52.530;13.188;2023-11-19T00:41:40;101073.34;;;3.59;73.77
41106;BME280;74159;52.530;13.188;2023-11-19T00:44:05;101064.69;;;3.62;73.98
41106;BME280;74159;52.530;13.188;2023-11-19T00:46:30;101055.44;;;3.63;73.25
41106;BME280;74159;52.530;13.188;2023-11-19T00:48:57;101044.72;;;3.61;73.41
41106;BME280;74159;52.530;13.188;2023-11-19T00:51:24;101036.28;;;3.63;73.58
41106;BME280;74159;52.530;13.188;2023-11-19T00:53:49;101045.56;;;3.62;73.75
41106;BME280;74159;52.530;13.188;2023-11-19T00:56:15;101033.72;;;3.68;72.75
41106;BME280;74159;52.530;13.188;2023-11-19T00:58:42;101025.94;;;3.72;72.88
41106;BME280;74159;52.530;13.188;2023-11-19T01:01:07;101018.31;;;3.74;72.61
41106;BME280;74159;52.530;13.188;2023-11-19T01:03:32;101010.50;;;3.77;72.55
41106;BME280;74159;52.530;13.188;2023-11-19T01:05:58;101017.03;;;3.76;72.22
41106;BME280;74159;52.530;13.188;2023-11-19T01:08:24;100989.84;;;3.81;72.48
41106;BME280;74159;52.530;13.188;2023-11-19T01:10:50;100971.75;;;3.80;72.22
41106;BME280;74159;52.530;13.188;2023-11-19T01:13:15;100966.75;;;3.77;72.75
41106;BME280;74159;52.530;13.188;2023-11-19T01:15:40;100964.63;;;3.79;72.55
41106;BME280;74159;52.530;13.188;2023-11-19T01:18:06;100960.44;;;3.77;71.92
41106;BME280;74159;52.530;13.188;2023-11-19T01:20:34;100962.94;;;3.78;72.50
41106;BME280;74159;52.530;13.188;2023-11-19T01:22:59;100950.69;;;3.81;71.90
41106;BME280;74159;52.530;13.188;2023-11-19T01:25:25;100946.06;;;3.81;72.25
41106;BME280;74159;52.530;13.188;2023-11-19T01:27:50;100939.31;;;3.84;72.36
41106;BME280;74159;52.530;13.188;2023-11-19T01:30:15;100941.22;;;3.83;72.13
41106;BME280;74159;52.530;13.188;2023-11-19T01:32:40;100943.94;;;3.83;72.61
41106;BME280;74159;52.530;13.188;2023-11-19T01:35:06;100936.19;;;3.80;72.66
41106;BME280;74159;52.530;13.188;2023-11-19T01:37:32;100915.97;;;3.81;72.14
41106;BME280;74159;52.530;13.188;2023-11-19T01:39:59;100890.16;;;3.77;73.06
41106;BME280;74159;52.530;13.188;2023-11-19T01:42:25;100905.94;;;3.75;73.34
41106;BME280;74159;52.530;13.188;2023-11-19T01:45:00;100894.88;;;3.70;74.23
41106;BME280;74159;52.530;13.188;2023-11-19T01:47:26;100886.66;;;3.70;74.17
41106;BME280;74159;52.530;13.188;2023-11-19T01:49:52;100882.16;;;3.76;73.28
41106;BME280;74159;52.530;13.188;2023-11-19T01:52:17;100867.50;;;3.70;74.47
41106;BME280;74159;52.530;13.188;2023-11-19T01:54:43;100862.25;;;3.69;74.17
41106;BME280;74159;52.530;13.188;2023-11-19T01:57:08;100866.28;;;3.66;75.17
41106;BME280;74159;52.530;13.188;2023-11-19T01:59:34;100866.88;;;3.68;74.16
41106;BME280;74159;52.530;13.188;2023-11-19T02:01:59;100852.81;;;3.65;75.01
41106;BME280;74159;52.530;13.188;2023-11-19T02:04:25;100830.19;;;3.57;74.72
41106;BME280;74159;52.530;13.188;2023-11-19T02:06:51;100831.50;;;3.55;75.66
41106;BME280;74159;52.530;13.188;2023-11-19T02:09:19;100807.50;;;3.57;75.55
41106;BME280;74159;52.530;13.188;2023-11-19T02:11:44;100793.22;;;3.55;75.02
41106;BME280;74159;52.530;13.188;2023-11-19T02:14:10;100774.69;;;3.57;75.56
41106;BME280;74159;52.530;13.188;2023-11-19T02:16:36;100756.13;;;3.59;74.77
41106;BME280;74159;52.530;13.188;2023-11-19T02:19:01;100756.97;;;3.59;75.52
41106;BME280;74159;52.530;13.188;2023-11-19T02:21:26;100770.41;;;3.61;75.52
41106;BME280;74159;52.530;13.188;2023-11-19T02:23:51;100778.00;;;3.59;75.58
41106;BME280;74159;52.530;13.188;2023-11-19T02:28:43;100752.25;;;3.67;75.27
41106;BME280;74159;52.530;13.188;2023-11-19T02:31:08;100749.06;;;3.70;75.11
41106;BME280;74159;52.530;13.188;2023-11-19T02:33:37;100745.47;;;3.69;74.96
41106;BME280;74159;52.530;13.188;2023-11-19T02:36:03;100745.88;;;3.73;75.06
41106;BME280;74159;52.530;13.188;2023-11-19T02:38:28;100734.09;;;3.72;74.91
41106;BME280;74159;52.530;13.188;2023-11-19T02:40:54;100722.22;;;3.78;74.61
41106;BME280;74159;52.530;13.188;2023-11-19T02:43:19;100740.31;;;3.79;74.77
41106;BME280;74159;52.530;13.188;2023-11-19T02:45:44;100743.16;;;3.84;74.55
41106;BME280;74159;52.530;13.188;2023-11-19T02:48:10;100736.03;;;3.83;74.41
41106;BME280;74159;52.530;13.188;2023-11-19T02:50:35;100710.34;;;3.84;74.61
41106;BME280;74159;52.530;13.188;2023-11-19T02:53:01;100680.72;;;3.81;74.96
41106;BME280;74159;52.530;13.188;2023-11-19T02:55:27;100669.56;;;3.83;74.29
41106;BME280;74159;52.530;13.188;2023-11-19T02:57:55;100670.16;;;3.85;74.21
41106;BME280;74159;52.530;13.188;2023-11-19T03:00:21;100684.91;;;3.84;74.62
41106;BME280;74159;52.530;13.188;2023-11-19T03:02:56;100684.22;;;3.88;74.95
41106;BME280;74159;52.530;13.188;2023-11-19T03:05:30;100689.69;;;3.88;74.32
41106;BME280;74159;52.530;13.188;2023-11-19T03:07:55;100698.50;;;3.90;74.13
41106;BME280;74159;52.530;13.188;2023-11-19T03:10:20;100685.06;;;4.01;74.42
41106;BME280;74159;52.530;13.188;2023-11-19T03:12:46;100681.00;;;3.91;74.55
41106;BME280;74159;52.530;13.188;2023-11-19T03:15:11;100691.72;;;3.93;75.06
41106;BME280;74159;52.530;13.188;2023-11-19T03:17:40;100687.19;;;3.87;76.06
41106;BME280;74159;52.530;13.188;2023-11-19T03:20:05;100694.03;;;3.78;76.75
41106;BME280;74159;52.530;13.188;2023-11-19T03:22:31;100676.06;;;3.70;78.38
41106;BME280;74159;52.530;13.188;2023-11-19T03:24:59;100672.44;;;3.58;79.70
41106;BME280;74159;52.530;13.188;2023-11-19T03:27:24;100648.72;;;3.52;81.37
41106;BME280;74159;52.530;13.188;2023-11-19T03:29:49;100631.00;;;3.43;81.52
41106;BME280;74159;52.530;13.188;2023-11-19T03:32:14;100622.28;;;3.34;82.14
41106;BME280;74159;52.530;13.188;2023-11-19T03:34:40;100618.56;;;3.28;83.08
41106;BME280;74159;52.530;13.188;2023-11-19T03:37:05;100624.50;;;3.25;84.10
41106;BME280;74159;52.530;13.188;2023-11-19T03:39:31;100624.13;;;3.22;84.76
41106;BME280;74159;52.530;13.188;2023-11-19T03:41:56;100627.09;;;3.20;85.12
41106;BME280;74159;52.530;13.188;2023-11-19T03:44:21;100607.34;;;3.18;85.17
41106;BME280;74159;52.530;13.188;2023-11-19T03:46:46;100608.03;;;3.14;84.67
41106;BME280;74159;52.530;13.188;2023-11-19T03:49:12;100585.47;;;3.18;85.54
41106;BME280;74159;52.530;13.188;2023-11-19T03:51:37;100576.69;;;3.16;85.12
41106;BME280;74159;52.530;13.188;2023-11-19T03:54:02;100555.28;;;3.13;86.01
41106;BME280;74159;52.530;13.188;2023-11-19T03:56:27;100564.31;;;3.14;85.81
41106;BME280;74159;52.530;13.188;2023-11-19T03:58:53;100556.50;;;3.17;85.82
41106;BME280;74159;52.530;13.188;2023-11-19T04:01:18;100555.75;;;3.10;86.42
41106;BME280;74159;52.530;13.188;2023-11-19T04:03:43;100544.72;;;3.17;86.38
41106;BME280;74159;52.530;13.188;2023-11-19T04:06:09;100539.72;;;3.14;86.58
41106;BME280;74159;52.530;13.188;2023-11-19T04:08:34;100533.44;;;3.13;87.15
41106;BME280;74159;52.530;13.188;2023-11-19T04:11:00;100531.28;;;3.15;86.84
41106;BME280;74159;52.530;13.188;2023-11-19T04:13:26;100523.94;;;3.16;86.29
41106;BME280;74159;52.530;13.188;2023-11-19T04:15:51;100516.97;;;3.20;86.84
41106;BME280;74159;52.530;13.188;2023-11-19T04:18:16;100511.69;;;3.18;86.55
41106;BME280;74159;52.530;13.188;2023-11-19T04:20:41;100510.19;;;3.22;86.21
41106;BME280;74159;52.530;13.188;2023-11-19T04:23:09;100514.00;;;3.21;86.46
41106;BME280;74159;52.530;13.188;2023-11-19T04:25:35;100520.66;;;3.25;86.88
41106;BME280;74159;52.530;13.188;2023-11-19T04:28:00;100508.53;;;3.21;86.15
41106;BME280;74159;52.530;13.188;2023-11-19T04:30:27;100506.88;;;3.20;86.52
41106;BME280;74159;52.530;13.188;2023-11-19T04:32:52;100512.56;;;3.30;86.14
41106;BME280;74159;52.530;13.188;2023-11-19T04:35:17;100508.19;;;3.29;86.53
41106;BME280;74159;52.530;13.188;2023-11-19T04:37:44;100509.13;;;3.35;86.06
41106;BME280;74159;52.530;13.188;2023-11-19T04:40:09;100492.25;;;3.26;86.35
41106;BME280;74159;52.530;13.188;2023-11-19T04:42:35;100481.78;;;3.23;87.50
41106;BME280;74159;52.530;13.188;2023-11-19T04:45:00;100479.53;;;3.20;87.52
41106;BME280;74159;52.530;13.188;2023-11-19T04:47:25;100488.34;;;3.22;87.89
41106;BME280;74159;52.530;13.188;2023-11-19T04:49:50;100481.31;;;3.26;87.45
41106;BME280;74159;52.530;13.188;2023-11-19T04:52:15;100474.44;;;3.24;87.26
41106;BME280;74159;52.530;13.188;2023-11-19T04:54:41;100473.97;;;3.27;88.02
41106;BME280;74159;52.530;13.188;2023-11-19T04:57:07;100469.56;;;3.26;87.59
41106;BME280;74159;52.530;13.188;2023-11-19T04:59:34;100460.53;;;3.25;87.51
41106;BME280;74159;52.530;13.188;2023-11-19T05:01:59;100458.41;;;3.27;87.67
41106;BME280;74159;52.530;13.188;2023-11-19T05:04:25;100423.47;;;3.29;87.52
41106;BME280;74159;52.530;13.188;2023-11-19T05:06:51;100421.78;;;3.28;88.26
41106;BME280;74159;52.530;13.188;2023-11-19T05:09:16;100418.47;;;3.26;87.71
41106;BME280;74159;52.530;13.188;2023-11-19T05:11:41;100393.63;;;3.28;87.71
41106;BME280;74159;52.530;13.188;2023-11-19T05:14:06;100404.31;;;3.29;88.15
41106;BME280;74159;52.530;13.188;2023-11-19T05:16:32;100394.22;;;3.30;87.69
41106;BME280;74159;52.530;13.188;2023-11-19T05:18:57;100399.94;;;3.28;88.07
41106;BME280;74159;52.530;13.188;2023-11-19T05:21:22;100404.44;;;3.35;87.77
41106;BME280;74159;52.530;13.188;2023-11-19T05:23:48;100390.19;;;3.32;87.62
41106;BME280;74159;52.530;13.188;2023-11-19T05:26:17;100387.59;;;3.38;88.03
41106;BME280;74159;52.530;13.188;2023-11-19T05:28:43;100391.28;;;3.43;87.74
41106;BME280;74159;52.530;13.188;2023-11-19T05:31:08;100388.31;;;3.45;87.78
41106;BME280;74159;52.530;13.188;2023-11-19T05:33:33;100377.00;;;3.41;87.43
41106;BME280;74159;52.530;13.188;2023-11-19T05:35:58;100366.91;;;3.42;87.49
41106;BME280;74159;52.530;13.188;2023-11-19T05:38:24;100357.88;;;3.41;87.98
41106;BME280;74159;52.530;13.188;2023-11-19T05:40:49;100340.16;;;3.44;88.03
41106;BME280;74159;52.530;13.188;2023-11-19T05:43:14;100348.84;;;3.41;87.75
41106;BME280;74159;52.530;13.188;2023-11-19T05:45:41;100345.03;;;3.42;87.87
41106;BME280;74159;52.530;13.188;2023-11-19T05:48:06;100338.03;;;3.46;87.67
41106;BME280;74159;52.530;13.188;2023-11-19T05:50:33;100323.53;;;3.45;87.44
41106;BME280;74159;52.530;13.188;2023-11-19T05:52:59;100327.69;;;3.48;88.16
41106;BME280;74159;52.530;13.188;2023-11-19T05:55:24;100312.09;;;3.48;87.93
41106;BME280;74159;52.530;13.188;2023-11-19T05:57:49;100317.81;;;3.47;87.85
41106;BME280;74159;52.530;13.188;2023-11-19T06:00:16;100323.88;;;3.49;87.73
41106;BME280;74159;52.530;13.188;2023-11-19T06:02:42;100330.56;;;3.53;87.91
41106;BME280;74159;52.530;13.188;2023-11-19T06:05:08;100314.97;;;3.53;88.07
41106;BME280;74159;52.530;13.188;2023-11-19T06:07:34;100310.53;;;3.64;87.69
41106;BME280;74159;52.530;13.188;2023-11-19T06:10:00;100298.91;;;3.57;88.00
41106;BME280;74159;52.530;13.188;2023-11-19T06:12:26;100279.19;;;3.55;88.00
41106;BME280;74159;52.530;13.188;2023-11-19T06:14:52;100295.09;;;3.58;88.00
41106;BME280;74159;52.530;13.188;2023-11-19T06:17:18;100288.81;;;3.57;88.10
41106;BME280;74159;52.530;13.188;2023-11-19T06:19:43;100300.09;;;3.61;87.49
41106;BME280;74159;52.530;13.188;2023-11-19T06:22:08;100310.53;;;3.64;87.38
41106;BME280;74159;52.530;13.188;2023-11-19T06:24:33;100288.91;;;3.62;87.75
41106;BME280;74159;52.530;13.188;2023-11-19T06:26:58;100274.91;;;3.59;88.08
41106;BME280;74159;52.530;13.188;2023-11-19T06:29:24;100270.13;;;3.66;87.82
41106;BME280;74159;52.530;13.188;2023-11-19T06:31:49;100255.00;;;3.75;87.49
41106;BME280;74159;52.530;13.188;2023-11-19T06:34:15;100253.09;;;3.76;87.78
41106;BME280;74159;52.530;13.188;2023-11-19T06:36:40;100258.56;;;3.76;87.74
41106;BME280;74159;52.530;13.188;2023-11-19T06:39:05;100266.63;;;3.82;87.39
41106;BME280;74159;52.530;13.188;2023-11-19T06:41:31;100256.66;;;3.76;88.01
41106;BME280;74159;52.530;13.188;2023-11-19T06:43:56;100254.16;;;3.75;87.91
41106;BME280;74159;52.530;13.188;2023-11-19T06:46:21;100247.63;;;3.76;88.25
41106;BME280;74159;52.530;13.188;2023-11-19T06:48:46;100250.59;;;3.74;87.45
41106;BME280;74159;52.530;13.188;2023-11-19T06:51:12;100262.13;;;3.76;87.85
41106;BME280;74159;52.530;13.188;2023-11-19T06:53:37;100258.41;;;3.82;88.29
41106;BME280;74159;52.530;13.188;2023-11-19T06:56:05;100265.09;;;3.86;88.03
41106;BME280;74159;52.530;13.188;2023-11-19T06:58:31;100264.22;;;3.86;88.30
41106;BME280;74159;52.530;13.188;2023-11-19T07:00:57;100264.09;;;3.92;88.36
41106;BME280;74159;52.530;13.188;2023-11-19T07:03:22;100261.63;;;3.91;88.24
41106;BME280;74159;52.530;13.188;2023-11-19T07:05:47;100265.44;;;3.90;87.66
41106;BME280;74159;52.530;13.188;2023-11-19T07:08:13;100260.78;;;3.90;88.38
41106;BME280;74159;52.530;13.188;2023-11-19T07:10:39;100264.09;;;3.92;88.21
41106;BME280;74159;52.530;13.188;2023-11-19T07:13:04;100263.59;;;3.96;88.07
41106;BME280;74159;52.530;13.188;2023-11-19T07:15:30;100274.06;;;3.99;87.85
41106;BME280;74159;52.530;13.188;2023-11-19T07:17:57;100261.47;;;3.98;87.77
41106;BME280;74159;52.530;13.188;2023-11-19T07:20:23;100255.16;;;3.97;88.29
41106;BME280;74159;52.530;13.188;2023-11-19T07:22:48;100272.63;;;4.08;88.27
41106;BME280;74159;52.530;13.188;2023-11-19T07:25:14;100272.13;;;4.11;88.07
41106;BME280;74159;52.530;13.188;2023-11-19T07:27:39;100273.69;;;4.07;87.92
41106;BME280;74159;52.530;13.188;2023-11-19T07:30:05;100260.00;;;4.07;88.45
41106;BME280;74159;52.530;13.188;2023-11-19T07:32:32;100251.22;;;4.05;88.34
41106;BME280;74159;52.530;13.188;2023-11-19T07:34:57;100271.97;;;4.17;88.07
41106;BME280;74159;52.530;13.188;2023-11-19T07:37:22;100253.16;;;4.21;87.99
41106;BME280;74159;52.530;13.188;2023-11-19T07:39:48;100263.22;;;4.32;87.98
41106;BME280;74159;52.530;13.188;2023-11-19T07:42:13;100244.53;;;4.29;88.57
41106;BME280;74159;52.530;13.188;2023-11-19T07:44:38;100246.28;;;4.35;88.76
41106;BME280;74159;52.530;13.188;2023-11-19T07:47:03;100249.47;;;4.44;88.57
41106;BME280;74159;52.530;13.188;2023-11-19T07:49:29;100253.69;;;4.51;87.90
41106;BME280;74159;52.530;13.188;2023-11-19T07:51:55;100247.63;;;4.49;88.47
41106;BME280;74159;52.530;13.188;2023-11-19T07:54:21;100241.09;;;4.50;88.24
41106;BME280;74159;52.530;13.188;2023-11-19T07:56:46;100246.66;;;4.56;88.76
41106;BME280;74159;52.530;13.188;2023-11-19T07:59:11;100237.53;;;4.67;88.23
41106;BME280;74159;52.530;13.188;2023-11-19T08:01:37;100246.69;;;4.72;88.22
41106;BME280;74159;52.530;13.188;2023-11-19T08:04:02;100249.16;;;4.74;87.82
41106;BME280;74159;52.530;13.188;2023-11-19T08:06:27;100245.34;;;4.75;88.09
41106;BME280;74159;52.530;13.188;2023-11-19T08:08:52;100248.66;;;4.77;88.14
41106;BME280;74159;52.530;13.188;2023-11-19T08:11:18;100242.50;;;4.87;87.53
41106;BME280;74159;52.530;13.188;2023-11-19T08:13:44;100237.88;;;4.87;87.74
41106;BME280;74159;52.530;13.188;2023-11-19T08:16:09;100234.69;;;4.95;88.29
41106;BME280;74159;52.530;13.188;2023-11-19T08:18:35;100231.50;;;5.03;88.32
41106;BME280;74159;52.530;13.188;2023-11-19T08:21:00;100230.03;;;5.12;87.80
41106;BME280;74159;52.530;13.188;2023-11-19T08:23:26;100233.22;;;5.04;87.73
41106;BME280;74159;52.530;13.188;2023-11-19T08:25:53;100233.34;;;5.14;87.75
41106;BME280;74159;52.530;13.188;2023-11-19T08:28:19;100223.47;;;5.13;87.59
41106;BME280;74159;52.530;13.188;2023-11-19T08:30:44;100226.88;;;5.21;87.85
41106;BME280;74159;52.530;13.188;2023-11-19T08:33:09;100218.38;;;5.22;87.76
41106;BME280;74159;52.530;13.188;2023-11-19T08:35:35;100225.34;;;5.30;87.77
41106;BME280;74159;52.530;13.188;2023-11-19T08:38:00;100222.06;;;5.33;87.97
41106;BME280;74159;52.530;13.188;2023-11-19T08:40:26;100206.13;;;5.52;87.81
41106;BME280;74159;52.530;13.188;2023-11-19T08:42:51;100211.78;;;5.62;87.47
41106;BME280;74159;52.530;13.188;2023-11-19T08:45:16;100210.28;;;5.54;87.47
41106;BME280;74159;52.530;13.188;2023-11-19T08:47:42;100209.66;;;5.47;87.72
41106;BME280;74159;52.530;13.188;2023-11-19T08:50:07;100206.34;;;5.45;87.84
41106;BME280;74159;52.530;13.188;2023-11-19T08:52:33;100214.19;;;5.58;87.78
41106;BME280;74159;52.530;13.188;2023-11-19T08:54:58;100210.94;;;5.61;87.91
41106;BME280;74159;52.530;13.188;2023-11-19T08:57:23;100206.06;;;5.68;87.50
41106;BME280;74159;52.530;13.188;2023-11-19T08:59:49;100205.16;;;5.85;87.26
41106;BME280;74159;52.530;13.188;2023-11-19T09:02:14;100221.63;;;5.85;87.26
41106;BME280;74159;52.530;13.188;2023-11-19T09:04:39;100214.44;;;5.79;87.81
41106;BME280;74159;52.530;13.188;2023-11-19T09:07:06;100206.81;;;5.86;87.62
41106;BME280;74159;52.530;13.188;2023-11-19T09:09:31;100220.13;;;5.94;87.91
41106;BME280;74159;52.530;13.188;2023-11-19T09:12:00;100212.13;;;6.14;87.52
41106;BME280;74159;52.530;13.188;2023-11-19T09:14:26;100211.75;;;6.32;86.69
41106;BME280;74159;52.530;13.188;2023-11-19T09:16:51;100206.53;;;6.36;86.81
41106;BME280;74159;52.530;13.188;2023-11-19T09:19:16;100220.69;;;6.50;86.35
41106;BME280;74159;52.530;13.188;2023-11-19T09:21:42;100227.09;;;6.60;85.90
41106;BME280;74159;52.530;13.188;2023-11-19T09:24:08;100225.47;;;6.97;85.78
41106;BME280;74159;52.530;13.188;2023-11-19T09:26:33;100225.03;;;7.15;83.89
41106;BME280;74159;52.530;13.188;2023-11-19T09:28:58;100222.72;;;6.97;84.85
41106;BME280;74159;52.530;13.188;2023-11-19T09:31:23;100227.09;;;6.92;84.86
41106;BME280;74159;52.530;13.188;2023-11-19T09:33:49;100215.03;;;6.99;85.37
41106;BME280;74159;52.530;13.188;2023-11-19T09:36:14;100207.78;;;7.24;86.08
41106;BME280;74159;52.530;13.188;2023-11-19T09:38:41;100205.97;;;7.45;84.41
41106;BME280;74159;52.530;13.188;2023-11-19T09:41:06;100204.94;;;7.67;84.79
41106;BME280;74159;52.530;13.188;2023-11-19T09:43:37;100198.94;;;7.80;84.24
41106;BME280;74159;52.530;13.188;2023-11-19T09:46:05;100193.94;;;7.67;84.63
41106;BME280;74159;52.530;13.188;2023-11-19T09:48:35;100195.34;;;7.74;85.41
41106;BME280;74159;52.530;13.188;2023-11-19T09:51:00;100187.41;;;7.88;84.71
41106;BME280;74159;52.530;13.188;2023-11-19T09:53:26;100195.41;;;7.90;84.92
41106;BME280;74159;52.530;13.188;2023-11-19T09:55:51;100191.78;;;7.84;85.29
41106;BME280;74159;52.530;13.188;2023-11-19T09:58:17;100197.25;;;7.69;86.02
41106;BME280;74159;52.530;13.188;2023-11-19T10:00:43;100193.44;;;7.80;86.22
41106;BME280;74159;52.530;13.188;2023-11-19T10:03:08;100198.16;;;7.95;85.74
41106;BME280;74159;52.530;13.188;2023-11-19T10:05:35;100194.66;;;8.25;85.68
41106;BME280;74159;52.530;13.188;2023-11-19T10:08:03;100191.66;;;8.36;84.96
41106;BME280;74159;52.530;13.188;2023-11-19T10:10:28;100194.66;;;8.25;85.27
41106;BME280;74159;52.530;13.188;2023-11-19T10:12:53;100185.28;;;8.26;85.18
41106;BME280;74159;52.530;13.188;2023-11-19T10:15:20;100182.00;;;8.24;85.36
41106;BME280;74159;52.530;13.188;2023-11-19T10:17:47;100176.50;;;8.34;85.17
41106;BME280;74159;52.530;13.188;2023-11-19T10:20:12;100182.88;;;8.44;85.55
41106;BME280;74159;52.530;13.188;2023-11-19T10:22:37;100175.13;;;8.77;84.35
41106;BME280;74159;52.530;13.188;2023-11-19T10:25:03;100180.28;;;9.24;82.92
41106;BME280;74159;52.530;13.188;2023-11-19T10:27:29;100167.88;;;9.86;80.58
41106;BME280;74159;52.530;13.188;2023-11-19T10:29:54;100169.06;;;10.19;79.47
41106;BME280;74159;52.530;13.188;2023-11-19T10:32:24;100167.97;;;10.26;79.64
41106;BME280;74159;52.530;13.188;2023-11-19T10:34:49;100165.41;;;10.34;79.31
41106;BME280;74159;52.530;13.188;2023-11-19T10:37:29;100164.91;;;10.22;78.95
41106;BME280;74159;52.530;13.188;2023-11-19T10:40:00;100164.34;;;10.20;79.61
41106;BME280;74159;52.530;13.188;2023-11-19T10:42:25;100148.06;;;10.58;78.56
41106;BME280;74159;52.530;13.188;2023-11-19T10:44:50;100144.97;;;10.93;77.71
41106;BME280;74159;52.530;13.188;2023-11-19T10:47:16;100136.72;;;10.88;77.68
41106;BME280;74159;52.530;13.188;2023-11-19T10:49:44;100145.44;;;10.42;78.75
41106;BME280;74159;52.530;13.188;2023-11-19T10:52:10;100154.50;;;10.04;80.29
41106;BME280;74159;52.530;13.188;2023-11-19T10:54:36;100165.06;;;9.97;80.59
41106;BME280;74159;52.530;13.188;2023-11-19T10:57:02;100162.84;;;9.99;80.67
41106;BME280;74159;52.530;13.188;2023-11-19T10:59:30;100155.09;;;10.01;80.71
41106;BME280;74159;52.530;13.188;2023-11-19T11:01:57;100160.63;;;10.01;80.55
41106;BME280;74159;52.530;13.188;2023-11-19T11:04:23;100152.28;;;10.06;79.79
41106;BME280;74159;52.530;13.188;2023-11-19T11:06:50;100148.69;;;10.10;79.27
41106;BME280;74159;52.530;13.188;2023-11-19T11:09:16;100150.41;;;10.45;78.18
41106;BME280;74159;52.530;13.188;2023-11-19T11:11:42;100152.13;;;11.90;73.42
41106;BME280;74159;52.530;13.188;2023-11-19T11:14:12;100150.34;;;11.32;74.46
41106;BME280;74159;52.530;13.188;2023-11-19T11:16:37;100146.59;;;11.90;73.59
41106;BME280;74159;52.530;13.188;2023-11-19T11:19:04;100148.03;;;12.44;70.48
41106;BME280;74159;52.530;13.188;2023-11-19T11:21:30;100140.50;;;13.23;69.75
41106;BME280;74159;52.530;13.188;2023-11-19T11:36:36;100132.31;;;17.37;53.87
41106;BME280;74159;52.530;13.188;2023-11-19T11:39:08;100120.16;;;16.86;54.91
41106;BME280;74159;52.530;13.188;2023-11-19T11:41:34;100132.00;;;15.40;58.58
41106;BME280;74159;52.530;13.188;2023-11-19T11:43:59;100134.66;;;13.66;65.20
41106;BME280;74159;52.530;13.188;2023-11-19T11:49:00;100142.34;;;11.73;71.78
41106;BME280;74159;52.530;13.188;2023-11-19T11:52:26;100139.81;;;11.34;73.02
41106;BME280;74159;52.530;13.188;2023-11-19T11:57:01;100128.47;;;11.12;74.08
41106;BME280;74159;52.530;13.188;2023-11-19T11:59:31;100138.78;;;11.25;74.17
41106;BME280;74159;52.530;13.188;2023-11-19T12:01:57;100146.25;;;11.30;73.65
41106;BME280;74159;52.530;13.188;2023-11-19T12:04:25;100134.69;;;11.23;74.03
41106;BME280;74159;52.530;13.188;2023-11-19T12:07:06;100147.22;;;11.15;74.43
41106;BME280;74159;52.530;13.188;2023-11-19T12:09:33;100151.34;;;11.18;74.54
41106;BME280;74159;52.530;13.188;2023-11-19T12:19:57;100138.38;;;10.89;75.62
41106;BME280;74159;52.530;13.188;2023-11-19T12:22:24;100150.13;;;10.76;76.54
41106;BME280;74159;52.530;13.188;2023-11-19T12:24:49;100140.81;;;10.67;76.79
41106;BME280;74159;52.530;13.188;2023-11-19T12:27:16;100131.44;;;10.63;77.43
41106;BME280;74159;52.530;13.188;2023-11-19T12:29:42;100130.91;;;10.61;77.45
41106;BME280;74159;52.530;13.188;2023-11-19T12:32:09;100122.78;;;10.69;76.80
41106;BME280;74159;52.530;13.188;2023-11-19T12:34:34;100117.72;;;10.81;76.48
41106;BME280;74159;52.530;13.188;2023-11-19T12:37:02;100119.72;;;10.76;76.29
41106;BME280;74159;52.530;13.188;2023-11-19T12:39:31;100138.47;;;10.79;75.30
41106;BME280;74159;52.530;13.188;2023-11-19T12:41:56;100126.63;;;11.02;74.28
41106;BME280;74159;52.530;13.188;2023-11-19T12:44:24;100133.78;;;11.51;72.03
41106;BME280;74159;52.530;13.188;2023-11-19T12:47:05;100139.78;;;11.58;71.61
41106;BME280;74159;52.530;13.188;2023-11-19T12:49:36;100142.88;;;11.33;72.13
41106;BME280;74159;52.530;13.188;2023-11-19T12:52:01;100144.69;;;11.19;72.17
41106;BME280;74159;52.530;13.188;2023-11-19T12:54:35;100145.44;;;11.00;72.88
41106;BME280;74159;52.530;13.188;2023-11-19T12:57:01;100143.91;;;10.89;73.17
41106;BME280;74159;52.530;13.188;2023-11-19T12:59:27;100131.78;;;10.85;73.21
41106;BME280;74159;52.530;13.188;2023-11-19T13:01:58;100131.81;;;12.51;68.28
41106;BME280;74159;52.530;13.188;2023-11-19T13:04:27;100128.78;;;15.15;58.37
41106;BME280;74159;52.530;13.188;2023-11-19T13:06:52;100120.84;;;16.74;54.52
41106;BME280;74159;52.530;13.188;2023-11-19T13:11:52;100117.06;;;15.84;56.05